createdAt,value
2023-01-09T00:01:42.904Z,2.95
2023-01-09T00:04:12.566Z,2.98
2023-01-09T00:06:42.855Z,3.00
2023-01-09T00:09:11.137Z,3.01
2023-01-09T00:11:39.528Z,3.03
2023-01-09T00:14:08.401Z,3.06
2023-01-09T00:16:37.737Z,3.08
2023-01-09T00:19:06.043Z,3.10
2023-01-09T00:21:34.255Z,3.12
2023-01-09T00:24:02.406Z,3.15
2023-01-09T00:26:31.265Z,3.16
2023-01-09T00:29:00.074Z,3.16
2023-01-09T00:31:28.408Z,3.16
2023-01-09T00:34:07.492Z,3.17
2023-01-09T00:36:35.714Z,3.18
2023-01-09T00:39:04.575Z,3.19
2023-01-09T00:41:41.927Z,3.21
2023-01-09T00:44:27.772Z,3.21
2023-01-09T00:47:03.064Z,3.24
2023-01-09T00:49:34.481Z,3.26
2023-01-09T00:52:04.474Z,3.26
2023-01-09T00:54:33.098Z,3.26
2023-01-09T00:57:01.469Z,3.27
2023-01-09T00:59:29.637Z,3.28
2023-01-09T01:01:58.076Z,3.29
2023-01-09T01:04:45.264Z,3.33
2023-01-09T01:07:32.090Z,3.37
2023-01-09T01:10:00.294Z,3.38
2023-01-09T01:12:28.529Z,3.38
2023-01-09T01:14:56.639Z,3.37
2023-01-09T01:17:25.098Z,3.37
2023-01-09T01:19:53.742Z,3.37
2023-01-09T01:22:21.796Z,3.38
2023-01-09T01:24:50.016Z,3.39
2023-01-09T01:27:18.597Z,3.40
2023-01-09T01:29:46.698Z,3.40
2023-01-09T01:32:15.330Z,3.41
2023-01-09T01:34:43.724Z,3.40
2023-01-09T01:37:11.751Z,3.39
2023-01-09T01:39:40.205Z,3.37
2023-01-09T01:42:08.573Z,3.36
2023-01-09T01:45:04.568Z,3.36
2023-01-09T01:47:42.348Z,3.35
2023-01-09T01:50:18.070Z,3.34
2023-01-09T01:52:52.807Z,3.32
2023-01-09T01:55:21.218Z,3.32
2023-01-09T01:57:53.775Z,3.31
2023-01-09T02:00:24.954Z,3.30
2023-01-09T02:03:28.559Z,3.28
2023-01-09T02:06:25.350Z,3.29
2023-01-09T02:08:52.129Z,3.27
2023-01-09T02:11:19.887Z,3.26
2023-01-09T02:13:47.620Z,3.25
2023-01-09T02:16:29.281Z,3.23
2023-01-09T02:19:34.043Z,3.20
2023-01-09T02:22:22.086Z,3.16
2023-01-09T02:25:00.882Z,3.12
2023-01-09T02:27:58.690Z,3.13
2023-01-09T02:30:31.487Z,3.12
2023-01-09T02:33:10.336Z,3.12
2023-01-09T02:35:37.004Z,3.10
2023-01-09T02:38:12.499Z,3.07
2023-01-09T02:40:47.454Z,3.04
2023-01-09T02:43:15.341Z,3.01
2023-01-09T02:45:42.019Z,3.00
2023-01-09T02:48:12.398Z,2.98
2023-01-09T02:50:47.612Z,2.96
2023-01-09T02:53:35.721Z,2.93
2023-01-09T02:56:24.445Z,2.89
2023-01-09T02:59:16.769Z,2.84
2023-01-09T03:02:05.343Z,2.79
2023-01-09T03:04:38.196Z,2.73
2023-01-09T03:07:17.144Z,2.71
2023-01-09T03:09:49.892Z,2.70
2023-01-09T03:12:21.071Z,2.67
2023-01-09T03:14:51.462Z,2.68
2023-01-09T03:17:34.957Z,2.64
2023-01-09T03:20:05.299Z,2.60
2023-01-09T03:22:32.227Z,2.56
2023-01-09T03:24:59.016Z,2.52
2023-01-09T03:27:26.398Z,2.51
2023-01-09T03:29:54.083Z,2.50
2023-01-09T03:32:20.777Z,2.49
2023-01-09T03:34:47.446Z,2.49
2023-01-09T03:37:14.398Z,2.46
2023-01-09T03:39:42.683Z,2.44
2023-01-09T03:42:09.398Z,2.40
2023-01-09T03:44:36.253Z,2.38
2023-01-09T03:47:02.946Z,2.35
2023-01-09T03:49:30.028Z,2.33
2023-01-09T03:51:56.955Z,2.33
2023-01-09T03:54:23.729Z,2.33
2023-01-09T03:56:50.556Z,2.34
2023-01-09T03:59:18.016Z,2.33
2023-01-09T04:01:44.703Z,2.31
2023-01-09T04:04:11.698Z,2.29
2023-01-09T04:06:38.562Z,2.28
2023-01-09T04:09:05.226Z,2.27
2023-01-09T04:11:31.895Z,2.27
2023-01-09T04:13:58.938Z,2.27
2023-01-09T04:16:25.640Z,2.27
2023-01-09T04:18:52.303Z,2.28
2023-01-09T04:21:19.253Z,2.27
2023-01-09T04:23:45.932Z,2.26
2023-01-09T04:26:12.826Z,2.23
2023-01-09T04:28:39.611Z,2.23
2023-01-09T04:31:06.299Z,2.23
2023-01-09T04:33:33.080Z,2.22
2023-01-09T04:36:00.070Z,2.22
2023-01-09T04:38:26.891Z,2.22
2023-01-09T04:40:53.797Z,2.22
2023-01-09T04:43:20.941Z,2.21
2023-01-09T04:45:47.616Z,2.19
2023-01-09T04:48:14.404Z,2.16
2023-01-09T04:50:41.215Z,2.15
2023-01-09T04:53:08.165Z,2.14
2023-01-09T04:55:35.189Z,2.14
2023-01-09T04:58:02.205Z,2.13
2023-01-09T05:00:28.847Z,2.12
2023-01-09T05:02:56.710Z,2.10
2023-01-09T05:05:23.743Z,2.08
2023-01-09T05:07:50.413Z,2.06
2023-01-09T05:10:17.373Z,2.04
2023-01-09T05:12:44.247Z,2.03
2023-01-09T05:15:11.345Z,2.04
2023-01-09T05:17:38.071Z,2.04
2023-01-09T05:20:05.176Z,2.03
2023-01-09T05:22:31.959Z,2.02
2023-01-09T05:25:00.440Z,2.02
2023-01-09T05:27:27.710Z,2.00
2023-01-09T05:29:54.403Z,1.98
2023-01-09T05:32:21.191Z,1.98
2023-01-09T05:34:48.104Z,1.97
2023-01-09T05:37:14.811Z,1.99
2023-01-09T05:39:41.604Z,2.01
2023-01-09T05:42:08.469Z,2.03
2023-01-09T05:44:35.132Z,2.04
2023-01-09T05:47:02.919Z,2.05
2023-01-09T05:49:30.159Z,2.04
2023-01-09T05:51:56.781Z,2.03
2023-01-09T05:54:23.549Z,2.01
2023-01-09T05:56:50.378Z,2.01
2023-01-09T05:59:17.075Z,2.00
2023-01-09T06:01:44.063Z,2.02
2023-01-09T06:04:10.912Z,2.01
2023-01-09T06:06:37.817Z,1.98
2023-01-09T06:09:04.570Z,1.96
2023-01-09T06:11:33.679Z,1.95
2023-01-09T06:14:00.818Z,1.97
2023-01-09T06:16:27.606Z,1.98
2023-01-09T06:18:54.879Z,2.00
2023-01-09T06:21:21.617Z,2.03
2023-01-09T06:23:48.412Z,2.05
2023-01-09T06:26:15.333Z,2.05
2023-01-09T06:28:44.499Z,2.01
2023-01-09T06:31:11.598Z,1.99
2023-01-09T06:33:38.702Z,1.98
2023-01-09T06:36:05.567Z,1.98
2023-01-09T06:38:32.500Z,1.97
2023-01-09T06:40:59.417Z,1.97
2023-01-09T06:43:26.171Z,1.96
2023-01-09T06:45:53.738Z,1.96
2023-01-09T06:48:20.615Z,1.95
2023-01-09T06:50:48.110Z,1.96
2023-01-09T06:53:14.910Z,1.97
2023-01-09T06:55:41.710Z,2.00
2023-01-09T06:58:08.436Z,2.04
2023-01-09T07:00:36.024Z,2.08
2023-01-09T07:03:04.028Z,2.10
2023-01-09T07:05:37.464Z,2.12
2023-01-09T07:08:04.390Z,2.14
2023-01-09T07:10:31.064Z,2.16
2023-01-09T07:12:57.997Z,2.21
2023-01-09T07:15:25.053Z,2.25
2023-01-09T07:17:52.576Z,2.28
2023-01-09T07:20:20.308Z,2.33
2023-01-09T07:22:47.291Z,2.37
2023-01-09T07:25:13.982Z,2.41
2023-01-09T07:27:41.762Z,2.45
2023-01-09T07:30:09.447Z,2.47
2023-01-09T07:32:37.875Z,2.49
2023-01-09T07:35:05.154Z,2.52
2023-01-09T07:37:32.044Z,2.55
2023-01-09T07:39:58.677Z,2.59
2023-01-09T07:42:25.471Z,2.63
2023-01-09T07:44:52.312Z,2.67
2023-01-09T07:47:19.045Z,2.71
2023-01-09T07:49:45.811Z,2.73
2023-01-09T07:52:12.833Z,2.75
2023-01-09T07:54:39.597Z,2.77
2023-01-09T07:57:06.414Z,2.81
2023-01-09T07:59:33.592Z,2.85
2023-01-09T08:02:01.855Z,2.90
2023-01-09T08:04:28.872Z,2.93
2023-01-09T08:06:56.352Z,2.96
2023-01-09T08:09:23.515Z,2.97
2023-01-09T08:11:50.300Z,2.98
2023-01-09T08:14:17.119Z,2.98
2023-01-09T08:16:43.828Z,3.01
2023-01-09T08:19:11.640Z,3.02
2023-01-09T08:21:39.177Z,3.03
2023-01-09T08:24:06.394Z,3.04
2023-01-09T08:26:33.131Z,3.05
2023-01-09T08:29:00.126Z,3.07
2023-01-09T08:31:26.799Z,3.09
2023-01-09T08:33:53.824Z,3.14
2023-01-09T08:36:21.394Z,3.19
2023-01-09T08:38:48.516Z,3.22
2023-01-09T08:41:33.807Z,3.25
2023-01-09T08:44:19.226Z,3.28
2023-01-09T08:47:05.200Z,3.30
2023-01-09T08:49:37.726Z,3.34
2023-01-09T08:52:05.953Z,3.36
2023-01-09T08:54:34.748Z,3.39
2023-01-09T08:57:02.178Z,3.42
2023-01-09T08:59:29.185Z,3.44
2023-01-09T09:01:57.626Z,3.47
2023-01-09T09:04:24.644Z,3.50
2023-01-09T09:06:51.566Z,3.52
2023-01-09T09:09:18.771Z,3.54
2023-01-09T09:11:45.752Z,3.59
2023-01-09T09:14:31.434Z,3.64
2023-01-09T09:16:58.832Z,3.70
2023-01-09T09:19:25.556Z,3.75
2023-01-09T09:21:52.673Z,3.80
2023-01-09T09:24:20.087Z,3.86
2023-01-09T09:26:46.753Z,3.91
2023-01-09T09:29:13.705Z,3.95
2023-01-09T09:31:40.857Z,3.98
2023-01-09T09:34:07.577Z,4.01
2023-01-09T09:36:34.386Z,4.04
2023-01-09T09:39:02.212Z,4.09
2023-01-09T09:41:58.205Z,4.12
2023-01-09T09:44:54.323Z,4.17
2023-01-09T09:47:48.004Z,4.22
2023-01-09T09:50:27.409Z,4.26
2023-01-09T09:53:19.193Z,4.30
2023-01-09T09:55:49.199Z,4.34
2023-01-09T09:58:45.080Z,4.39
2023-01-09T10:01:17.797Z,4.44
2023-01-09T10:03:55.445Z,4.48
2023-01-09T10:06:37.187Z,4.50
2023-01-09T10:09:15.754Z,4.51
2023-01-09T10:12:00.549Z,4.52
2023-01-09T10:14:27.594Z,4.54
2023-01-09T10:17:19.392Z,4.56
2023-01-09T10:20:13.377Z,4.61
2023-01-09T10:23:05.417Z,4.63
2023-01-09T10:26:00.747Z,4.66
2023-01-09T10:28:46.100Z,4.69
2023-01-09T10:31:35.461Z,4.71
2023-01-09T10:34:19.184Z,4.74
2023-01-09T10:37:01.598Z,4.77
2023-01-09T10:39:58.709Z,4.80
2023-01-09T10:42:49.374Z,4.86
2023-01-09T10:45:53.777Z,4.91
2023-01-09T10:48:43.924Z,4.96
2023-01-09T10:51:23.820Z,5.03
2023-01-09T10:53:53.546Z,5.06
2023-01-09T10:56:36.362Z,5.10
2023-01-09T10:59:03.949Z,5.16
2023-01-09T11:01:36.859Z,5.20
2023-01-09T11:04:28.940Z,5.22
2023-01-09T11:07:12.283Z,5.25
2023-01-09T11:09:55.726Z,5.25
2023-01-09T11:12:29.122Z,5.24
2023-01-09T11:15:16.061Z,5.27
2023-01-09T11:17:43.659Z,5.27
2023-01-09T11:20:22.349Z,5.27
2023-01-09T11:22:52.230Z,5.29
2023-01-09T11:25:21.408Z,5.28
2023-01-09T11:28:06.250Z,5.27
2023-01-09T11:30:50.339Z,5.26
2023-01-09T11:33:24.264Z,5.25
2023-01-09T11:35:54.655Z,5.26
2023-01-09T11:38:24.337Z,5.29
2023-01-09T11:40:54.794Z,5.29
2023-01-09T11:43:40.053Z,5.31
2023-01-09T11:46:10.895Z,5.32
2023-01-09T11:48:39.226Z,5.36
2023-01-09T11:51:30.284Z,5.38
2023-01-09T11:54:18.791Z,5.41
2023-01-09T11:56:46.785Z,5.45
2023-01-09T11:59:16.801Z,5.46
2023-01-09T12:01:52.003Z,5.47
2023-01-09T12:04:51.675Z,5.48
2023-01-09T12:07:50.234Z,5.50
2023-01-09T12:11:01.062Z,5.53
2023-01-09T12:13:48.445Z,5.55
2023-01-09T12:16:25.001Z,5.57
2023-01-09T12:19:11.518Z,5.63
2023-01-09T12:22:00.969Z,5.66
2023-01-09T12:24:34.082Z,5.68
2023-01-09T12:27:30.881Z,5.71
2023-01-09T12:30:45.817Z,5.75
2023-01-09T12:33:26.236Z,5.78
2023-01-09T12:36:11.116Z,5.83
2023-01-09T12:38:47.014Z,5.86
2023-01-09T12:41:33.031Z,5.87
2023-01-09T12:44:18.082Z,5.91
2023-01-09T12:47:23.998Z,5.94
2023-01-09T12:50:06.963Z,6.02
2023-01-09T12:52:43.186Z,6.07
2023-01-09T12:55:16.248Z,6.14
2023-01-09T12:57:50.645Z,6.19
2023-01-09T13:00:37.198Z,6.24
2023-01-09T13:03:18.563Z,6.29
2023-01-09T13:05:51.147Z,6.32
2023-01-09T13:08:35.662Z,6.36
2023-01-09T13:11:20.488Z,6.39
2023-01-09T13:14:14.466Z,6.42
2023-01-09T13:16:49.024Z,6.46
2023-01-09T13:19:33.977Z,6.48
2023-01-09T13:22:04.608Z,6.51
2023-01-09T13:25:07.368Z,6.53
2023-01-09T13:27:39.901Z,6.55
2023-01-09T13:30:13.121Z,6.55
2023-01-09T13:32:42.541Z,6.58
2023-01-09T13:35:14.231Z,6.60
2023-01-09T13:37:42.287Z,6.61
2023-01-09T13:40:21.043Z,6.61
2023-01-09T13:43:03.602Z,6.60
2023-01-09T13:45:37.116Z,6.58
2023-01-09T13:48:10.433Z,6.57
2023-01-09T13:50:38.156Z,6.57
2023-01-09T13:53:17.279Z,6.58
2023-01-09T13:56:02.647Z,6.58
2023-01-09T13:58:31.161Z,6.59
2023-01-09T14:01:01.094Z,6.59
2023-01-09T14:03:32.469Z,6.60
2023-01-09T14:05:59.680Z,6.59
2023-01-09T14:08:28.748Z,6.58
2023-01-09T14:11:06.109Z,6.59
2023-01-09T14:13:37.553Z,6.61
2023-01-09T14:16:10.342Z,6.62
2023-01-09T14:18:45.519Z,6.64
2023-01-09T14:21:12.912Z,6.65
2023-01-09T14:23:52.578Z,6.63
2023-01-09T14:26:25.108Z,6.63
2023-01-09T14:29:17.453Z,6.63
2023-01-09T14:31:44.401Z,6.64
2023-01-09T14:34:31.934Z,6.64
2023-01-09T14:37:02.006Z,6.64
2023-01-09T14:39:31.930Z,6.64
2023-01-09T14:42:07.842Z,6.63
2023-01-09T14:44:46.542Z,6.66
2023-01-09T14:47:28.958Z,6.68
2023-01-09T14:50:21.439Z,6.71
2023-01-09T14:52:53.591Z,6.74
2023-01-09T14:55:29.737Z,6.75
2023-01-09T14:58:28.650Z,6.75
2023-01-09T15:01:04.959Z,6.77
2023-01-09T15:03:38.968Z,6.78
2023-01-09T15:06:20.617Z,6.80
2023-01-09T15:08:54.509Z,6.82
2023-01-09T15:11:21.545Z,6.84
2023-01-09T15:13:52.229Z,6.85
2023-01-09T15:16:21.551Z,6.84
2023-01-09T15:18:53.086Z,6.84
2023-01-09T15:21:24.062Z,6.84
2023-01-09T15:23:51.099Z,6.85
2023-01-09T15:26:30.437Z,6.86
2023-01-09T15:29:12.306Z,6.86
2023-01-09T15:31:42.393Z,6.85
2023-01-09T15:34:18.530Z,6.83
2023-01-09T15:36:48.582Z,6.81
2023-01-09T15:39:23.931Z,6.81
2023-01-09T15:42:09.750Z,6.81
2023-01-09T15:44:39.539Z,6.80
2023-01-09T15:47:11.761Z,6.80
2023-01-09T15:49:38.701Z,6.78
2023-01-09T15:52:11.178Z,6.77
2023-01-09T15:54:39.779Z,6.76
2023-01-09T15:57:32.584Z,6.73
2023-01-09T16:00:31.260Z,6.74
2023-01-09T16:03:10.684Z,6.73
2023-01-09T16:05:46.768Z,6.72
2023-01-09T16:08:28.910Z,6.71
2023-01-09T16:11:00.997Z,6.70
2023-01-09T16:13:30.728Z,6.67
2023-01-09T16:15:59.910Z,6.63
2023-01-09T16:18:33.346Z,6.61
2023-01-09T16:21:31.451Z,6.60
2023-01-09T16:24:13.218Z,6.59
2023-01-09T16:26:40.239Z,6.58
2023-01-09T16:29:37.007Z,6.58
2023-01-09T16:32:06.123Z,6.57
2023-01-09T16:34:34.352Z,6.55
2023-01-09T16:37:02.318Z,6.54
2023-01-09T16:39:30.071Z,6.52
2023-01-09T16:42:15.728Z,6.51
2023-01-09T16:44:42.773Z,6.50
2023-01-09T16:47:11.953Z,6.49
2023-01-09T16:49:38.765Z,6.49
2023-01-09T16:52:14.809Z,6.49
2023-01-09T16:54:43.304Z,6.49
2023-01-09T16:57:15.406Z,6.47
2023-01-09T16:59:42.983Z,6.46
2023-01-09T17:02:17.537Z,6.44
2023-01-09T17:04:44.426Z,6.42
2023-01-09T17:07:15.889Z,6.42
2023-01-09T17:09:43.162Z,6.41
2023-01-09T17:12:24.231Z,6.42
2023-01-09T17:14:51.075Z,6.40
2023-01-09T17:17:18.182Z,6.39
2023-01-09T17:19:47.633Z,6.37
2023-01-09T17:22:15.044Z,6.36
2023-01-09T17:25:00.239Z,6.35
2023-01-09T17:27:52.743Z,6.35
2023-01-09T17:30:20.462Z,6.34
2023-01-09T17:32:48.200Z,6.34
2023-01-09T17:35:15.588Z,6.35
2023-01-09T17:37:43.780Z,6.35
2023-01-09T17:40:22.343Z,6.33
2023-01-09T17:42:49.099Z,6.31
2023-01-09T17:45:15.980Z,6.29
2023-01-09T17:47:42.932Z,6.27
2023-01-09T17:50:18.083Z,6.28
2023-01-09T17:52:46.403Z,6.26
2023-01-09T17:55:13.403Z,6.25
2023-01-09T17:57:42.806Z,6.24
2023-01-09T18:00:26.014Z,6.24
2023-01-09T18:02:54.306Z,6.23
2023-01-09T18:05:22.003Z,6.22
2023-01-09T18:07:49.296Z,6.23
2023-01-09T18:10:18.735Z,6.23
2023-01-09T18:12:50.028Z,6.24
2023-01-09T18:15:16.879Z,6.24
2023-01-09T18:17:43.546Z,6.21
2023-01-09T18:20:10.787Z,6.19
2023-01-09T18:22:37.648Z,6.16
2023-01-09T18:25:05.295Z,6.15
2023-01-09T18:27:34.738Z,6.16
2023-01-09T18:30:04.284Z,6.15
2023-01-09T18:32:32.281Z,6.13
2023-01-09T18:35:00.257Z,6.11
2023-01-09T18:37:27.029Z,6.09
2023-01-09T18:39:53.700Z,6.08
2023-01-09T18:42:20.528Z,6.09
2023-01-09T18:44:47.356Z,6.11
2023-01-09T18:47:13.946Z,6.11
2023-01-09T18:49:41.030Z,6.14
2023-01-09T18:52:07.939Z,6.15
2023-01-09T18:54:34.623Z,6.13
2023-01-09T18:57:01.630Z,6.09
2023-01-09T18:59:28.386Z,6.09
2023-01-09T19:01:54.988Z,6.10
2023-01-09T19:04:22.206Z,6.11
2023-01-09T19:06:49.863Z,6.14
2023-01-09T19:09:16.597Z,6.15
2023-01-09T19:11:44.269Z,6.14
2023-01-09T19:14:13.190Z,6.13
2023-01-09T19:16:40.089Z,6.11
2023-01-09T19:19:08.219Z,6.13
2023-01-09T19:21:35.534Z,6.14
2023-01-09T19:24:02.202Z,6.16
2023-01-09T19:26:30.325Z,6.16
2023-01-09T19:28:57.090Z,6.14
2023-01-09T19:31:25.698Z,6.13
2023-01-09T19:33:52.692Z,6.11
2023-01-09T19:36:20.655Z,6.08
2023-01-09T19:38:47.445Z,6.04
2023-01-09T19:41:19.592Z,6.04
2023-01-09T19:43:47.156Z,6.05
2023-01-09T19:46:21.318Z,6.05
2023-01-09T19:48:48.621Z,6.06
2023-01-09T19:51:17.184Z,6.07
2023-01-09T19:53:44.368Z,6.09
2023-01-09T19:56:12.903Z,6.11
2023-01-09T19:58:40.811Z,6.10
2023-01-09T20:01:14.669Z,6.11
2023-01-09T20:03:43.308Z,6.11
2023-01-09T20:06:16.967Z,6.11
2023-01-09T20:08:47.907Z,6.10
2023-01-09T20:11:15.292Z,6.09
2023-01-09T20:13:42.797Z,6.07
2023-01-09T20:16:19.326Z,6.06
2023-01-09T20:18:47.618Z,6.07
2023-01-09T20:21:21.040Z,6.07
2023-01-09T20:23:50.821Z,6.06
2023-01-09T20:26:18.450Z,6.06
2023-01-09T20:28:46.251Z,6.06
2023-01-09T20:31:15.878Z,6.08
2023-01-09T20:33:44.130Z,6.08
2023-01-09T20:36:10.947Z,6.06
2023-01-09T20:38:39.262Z,6.06
2023-01-09T20:41:23.713Z,6.04
2023-01-09T20:44:13.056Z,6.03
2023-01-09T20:46:42.817Z,6.00
2023-01-09T20:49:12.439Z,6.00
2023-01-09T20:51:46.113Z,5.98
2023-01-09T20:54:14.401Z,5.98
2023-01-09T20:56:41.470Z,5.97
2023-01-09T20:59:17.049Z,5.96
2023-01-09T21:01:43.817Z,5.95
2023-01-09T21:04:10.587Z,5.92
2023-01-09T21:06:37.737Z,5.91
2023-01-09T21:09:05.542Z,5.91
2023-01-09T21:11:32.744Z,5.89
2023-01-09T21:13:59.819Z,5.88
2023-01-09T21:16:26.677Z,5.89
2023-01-09T21:18:54.455Z,5.87
2023-01-09T21:21:24.162Z,5.88
2023-01-09T21:23:55.258Z,5.84
2023-01-09T21:26:25.983Z,5.82
2023-01-09T21:28:54.691Z,5.82
2023-01-09T21:31:30.361Z,5.84
2023-01-09T21:33:57.287Z,5.83
2023-01-09T21:36:23.988Z,5.83
2023-01-09T21:38:53.629Z,5.82
2023-01-09T21:41:39.436Z,5.78
2023-01-09T21:44:28.648Z,5.75
2023-01-09T21:46:56.947Z,5.72
2023-01-09T21:49:25.815Z,5.73
2023-01-09T21:51:53.914Z,5.71
2023-01-09T21:54:24.883Z,5.70
2023-01-09T21:56:52.356Z,5.69
2023-01-09T21:59:19.160Z,5.68
2023-01-09T22:01:48.457Z,5.71
2023-01-09T22:04:16.654Z,5.72
2023-01-09T22:06:43.384Z,5.74
2023-01-09T22:09:10.760Z,5.76
2023-01-09T22:11:38.219Z,5.78
2023-01-09T22:14:05.751Z,5.79
2023-01-09T22:16:33.147Z,5.81
2023-01-09T22:18:59.959Z,5.79
2023-01-09T22:21:26.849Z,5.78
2023-01-09T22:23:53.935Z,5.75
2023-01-09T22:26:20.977Z,5.73
2023-01-09T22:28:48.031Z,5.71
2023-01-09T22:31:18.096Z,5.68
2023-01-09T22:33:50.268Z,5.66
2023-01-09T22:36:17.257Z,5.66
2023-01-09T22:38:44.708Z,5.66
2023-01-09T22:41:12.522Z,5.64
2023-01-09T22:43:39.402Z,5.60
2023-01-09T22:46:09.127Z,5.59
2023-01-09T22:48:38.739Z,5.57
2023-01-09T22:51:10.164Z,5.55
2023-01-09T22:53:36.814Z,5.53
2023-01-09T22:56:07.720Z,5.50
2023-01-09T22:58:34.438Z,5.49
2023-01-09T23:01:01.650Z,5.45
2023-01-09T23:03:28.600Z,5.43
2023-01-09T23:06:07.943Z,5.41
2023-01-09T23:08:35.032Z,5.40
2023-01-09T23:11:04.524Z,5.38
2023-01-09T23:13:31.247Z,5.33
2023-01-09T23:15:58.146Z,5.29
2023-01-09T23:18:24.899Z,5.26
2023-01-09T23:20:53.884Z,5.21
2023-01-09T23:23:22.296Z,5.17
2023-01-09T23:25:53.677Z,5.13
2023-01-09T23:28:21.290Z,5.09
2023-01-09T23:30:48.880Z,5.04
2023-01-09T23:33:16.494Z,5.00
2023-01-09T23:35:43.930Z,4.94
2023-01-09T23:38:11.465Z,4.90
2023-01-09T23:40:40.620Z,4.84
2023-01-09T23:43:09.982Z,4.79
2023-01-09T23:45:38.669Z,4.75
2023-01-09T23:48:07.292Z,4.72
2023-01-09T23:50:34.373Z,4.69
2023-01-09T23:53:01.549Z,4.66
2023-01-09T23:55:28.672Z,4.64
2023-01-09T23:57:55.646Z,4.58
